Algood, Tennessee
Current Conditions -  °F | °C
As of 6:15 PM on Wednesday 28 Jan 2015 (Local Time) from KSRB Reporting Station
Clear Clear  
Wind Chill: 38°   Ceiling: Unl
Heat Index: 41°   Visibility: 10mi
Dew Point: 21°   Wind: 5mph
Humidity: 45%   Direction: 140°SE
Pressure: 30.19"   Gusts: NA
Location:  36.1802°N, 85.4582°W
Report Text: KSRB 290015Z AUTO 14004KT 10SM CLR 05/M06 A3019 RMK
Loading
Personal Weather Stations






























Interactive Weather Map New forecast layout! Learn more

10-Day Weather Forecast

Advertisements
Track Severe Weather on mobile